sensor_id;sensor_type;location;lat;lon;timestamp;P1;durP1;ratioP1;P2;durP2;ratioP2
63499;SDS011;49654;51.142;14.924;2024-03-07T00:02:10;42.35;;;27.45;;
63499;SDS011;49654;51.142;14.924;2024-03-07T00:04:38;42.10;;;26.45;;
63499;SDS011;49654;51.142;14.924;2024-03-07T00:07:06;42.67;;;25.75;;
63499;SDS011;49654;51.142;14.924;2024-03-07T00:09:34;36.28;;;25.50;;
63499;SDS011;49654;51.142;14.924;2024-03-07T00:12:01;38.70;;;26.17;;
63499;SDS011;49654;51.142;14.924;2024-03-07T00:14:29;36.85;;;24.45;;
63499;SDS011;49654;51.142;14.924;2024-03-07T00:16:57;38.75;;;24.23;;
63499;SDS011;49654;51.142;14.924;2024-03-07T00:19:25;41.58;;;24.77;;
63499;SDS011;49654;51.142;14.924;2024-03-07T00:21:53;42.47;;;26.57;;
63499;SDS011;49654;51.142;14.924;2024-03-07T00:24:20;40.65;;;26.42;;
63499;SDS011;49654;51.142;14.924;2024-03-07T00:26:48;39.83;;;26.05;;
63499;SDS011;49654;51.142;14.924;2024-03-07T00:29:16;42.47;;;25.75;;
63499;SDS011;49654;51.142;14.924;2024-03-07T00:31:44;38.83;;;25.92;;
63499;SDS011;49654;51.142;14.924;2024-03-07T00:34:12;43.20;;;28.10;;
63499;SDS011;49654;51.142;14.924;2024-03-07T00:36:39;47.78;;;27.65;;
63499;SDS011;49654;51.142;14.924;2024-03-07T00:39:08;42.92;;;27.83;;
63499;SDS011;49654;51.142;14.924;2024-03-07T00:41:37;45.33;;;27.77;;
63499;SDS011;49654;51.142;14.924;2024-03-07T00:44:03;46.03;;;28.90;;
63499;SDS011;49654;51.142;14.924;2024-03-07T00:46:30;48.72;;;30.60;;
63499;SDS011;49654;51.142;14.924;2024-03-07T00:48:57;50.85;;;31.42;;
63499;SDS011;49654;51.142;14.924;2024-03-07T00:51:24;54.80;;;34.00;;
63499;SDS011;49654;51.142;14.924;2024-03-07T00:53:51;52.72;;;33.97;;
63499;SDS011;49654;51.142;14.924;2024-03-07T00:56:20;54.35;;;33.65;;
63499;SDS011;49654;51.142;14.924;2024-03-07T00:58:47;56.42;;;36.17;;
63499;SDS011;49654;51.142;14.924;2024-03-07T01:01:15;58.88;;;36.10;;
63499;SDS011;49654;51.142;14.924;2024-03-07T01:03:43;58.88;;;35.35;;
63499;SDS011;49654;51.142;14.924;2024-03-07T01:06:10;59.78;;;35.13;;
63499;SDS011;49654;51.142;14.924;2024-03-07T01:08:37;57.13;;;36.13;;
63499;SDS011;49654;51.142;14.924;2024-03-07T01:11:04;58.78;;;36.60;;
63499;SDS011;49654;51.142;14.924;2024-03-07T01:13:36;53.75;;;35.05;;
63499;SDS011;49654;51.142;14.924;2024-03-07T01:16:04;57.55;;;36.00;;
63499;SDS011;49654;51.142;14.924;2024-03-07T01:18:31;54.85;;;35.53;;
63499;SDS011;49654;51.142;14.924;2024-03-07T01:20:59;54.25;;;34.40;;
63499;SDS011;49654;51.142;14.924;2024-03-07T01:23:26;53.20;;;34.38;;
63499;SDS011;49654;51.142;14.924;2024-03-07T01:25:54;52.22;;;34.25;;
63499;SDS011;49654;51.142;14.924;2024-03-07T01:28:22;52.58;;;34.50;;
63499;SDS011;49654;51.142;14.924;2024-03-07T01:30:51;54.75;;;34.17;;
63499;SDS011;49654;51.142;14.924;2024-03-07T01:33:18;53.72;;;34.90;;
63499;SDS011;49654;51.142;14.924;2024-03-07T01:35:45;54.05;;;33.95;;
63499;SDS011;49654;51.142;14.924;2024-03-07T01:38:13;55.42;;;35.25;;
63499;SDS011;49654;51.142;14.924;2024-03-07T01:40:40;53.85;;;33.88;;
63499;SDS011;49654;51.142;14.924;2024-03-07T01:43:07;51.17;;;35.08;;
63499;SDS011;49654;51.142;14.924;2024-03-07T01:45:34;56.10;;;34.85;;
63499;SDS011;49654;51.142;14.924;2024-03-07T01:48:04;54.95;;;34.33;;
63499;SDS011;49654;51.142;14.924;2024-03-07T01:50:32;53.10;;;34.28;;
63499;SDS011;49654;51.142;14.924;2024-03-07T01:52:59;56.78;;;34.83;;
63499;SDS011;49654;51.142;14.924;2024-03-07T01:55:27;58.30;;;36.45;;
63499;SDS011;49654;51.142;14.924;2024-03-07T01:57:55;56.50;;;36.10;;
63499;SDS011;49654;51.142;14.924;2024-03-07T02:00:24;51.40;;;33.95;;
63499;SDS011;49654;51.142;14.924;2024-03-07T02:02:51;58.53;;;35.80;;
63499;SDS011;49654;51.142;14.924;2024-03-07T02:05:20;55.80;;;35.90;;
63499;SDS011;49654;51.142;14.924;2024-03-07T02:07:48;60.90;;;37.55;;
63499;SDS011;49654;51.142;14.924;2024-03-07T02:10:15;55.33;;;36.65;;
63499;SDS011;49654;51.142;14.924;2024-03-07T02:12:43;55.50;;;37.38;;
63499;SDS011;49654;51.142;14.924;2024-03-07T02:15:11;58.35;;;38.22;;
63499;SDS011;49654;51.142;14.924;2024-03-07T02:17:39;62.90;;;39.22;;
63499;SDS011;49654;51.142;14.924;2024-03-07T02:20:07;62.10;;;39.00;;
63499;SDS011;49654;51.142;14.924;2024-03-07T02:22:37;70.75;;;42.80;;
63499;SDS011;49654;51.142;14.924;2024-03-07T02:25:04;66.00;;;41.67;;
63499;SDS011;49654;51.142;14.924;2024-03-07T02:27:35;66.22;;;42.70;;
63499;SDS011;49654;51.142;14.924;2024-03-07T02:30:02;64.65;;;40.88;;
63499;SDS011;49654;51.142;14.924;2024-03-07T02:32:31;64.72;;;41.60;;
63499;SDS011;49654;51.142;14.924;2024-03-07T02:34:58;67.53;;;43.22;;
63499;SDS011;49654;51.142;14.924;2024-03-07T02:37:25;67.10;;;41.88;;
63499;SDS011;49654;51.142;14.924;2024-03-07T02:39:54;66.80;;;42.90;;
63499;SDS011;49654;51.142;14.924;2024-03-07T02:42:21;65.50;;;41.97;;
63499;SDS011;49654;51.142;14.924;2024-03-07T02:44:48;66.07;;;40.65;;
63499;SDS011;49654;51.142;14.924;2024-03-07T02:47:15;70.07;;;42.22;;
63499;SDS011;49654;51.142;14.924;2024-03-07T02:49:43;67.03;;;42.83;;
63499;SDS011;49654;51.142;14.924;2024-03-07T02:52:10;69.43;;;44.17;;
63499;SDS011;49654;51.142;14.924;2024-03-07T02:54:37;71.78;;;43.63;;
63499;SDS011;49654;51.142;14.924;2024-03-07T02:57:05;68.60;;;41.90;;
63499;SDS011;49654;51.142;14.924;2024-03-07T02:59:32;66.35;;;42.58;;
63499;SDS011;49654;51.142;14.924;2024-03-07T03:01:59;64.22;;;42.25;;
63499;SDS011;49654;51.142;14.924;2024-03-07T03:04:26;66.22;;;43.55;;
63499;SDS011;49654;51.142;14.924;2024-03-07T03:06:53;69.57;;;43.17;;
63499;SDS011;49654;51.142;14.924;2024-03-07T03:09:19;64.57;;;42.53;;
63499;SDS011;49654;51.142;14.924;2024-03-07T03:11:47;64.70;;;42.00;;
63499;SDS011;49654;51.142;14.924;2024-03-07T03:14:15;64.57;;;41.65;;
63499;SDS011;49654;51.142;14.924;2024-03-07T03:16:42;66.90;;;43.25;;
63499;SDS011;49654;51.142;14.924;2024-03-07T03:19:09;63.55;;;41.88;;
63499;SDS011;49654;51.142;14.924;2024-03-07T03:21:37;68.53;;;42.53;;
63499;SDS011;49654;51.142;14.924;2024-03-07T03:24:04;64.60;;;41.45;;
63499;SDS011;49654;51.142;14.924;2024-03-07T03:26:33;63.97;;;41.72;;
63499;SDS011;49654;51.142;14.924;2024-03-07T03:29:01;64.97;;;40.90;;
63499;SDS011;49654;51.142;14.924;2024-03-07T03:31:29;64.55;;;41.08;;
63499;SDS011;49654;51.142;14.924;2024-03-07T03:33:56;67.65;;;43.30;;
63499;SDS011;49654;51.142;14.924;2024-03-07T03:36:23;64.78;;;41.78;;
63499;SDS011;49654;51.142;14.924;2024-03-07T03:38:50;63.83;;;40.80;;
63499;SDS011;49654;51.142;14.924;2024-03-07T03:41:17;60.45;;;40.00;;
63499;SDS011;49654;51.142;14.924;2024-03-07T03:43:44;63.72;;;41.17;;
63499;SDS011;49654;51.142;14.924;2024-03-07T03:46:13;66.47;;;40.75;;
63499;SDS011;49654;51.142;14.924;2024-03-07T03:48:41;61.47;;;40.53;;
63499;SDS011;49654;51.142;14.924;2024-03-07T03:51:08;61.10;;;39.58;;
63499;SDS011;49654;51.142;14.924;2024-03-07T03:53:38;60.38;;;40.17;;
63499;SDS011;49654;51.142;14.924;2024-03-07T03:56:06;66.03;;;41.05;;
63499;SDS011;49654;51.142;14.924;2024-03-07T03:58:37;60.83;;;40.42;;
63499;SDS011;49654;51.142;14.924;2024-03-07T04:01:06;65.13;;;40.75;;
63499;SDS011;49654;51.142;14.924;2024-03-07T04:03:38;62.25;;;40.50;;
63499;SDS011;49654;51.142;14.924;2024-03-07T04:06:07;59.88;;;38.67;;
63499;SDS011;49654;51.142;14.924;2024-03-07T04:08:34;57.28;;;38.65;;
63499;SDS011;49654;51.142;14.924;2024-03-07T04:11:02;61.60;;;38.92;;
63499;SDS011;49654;51.142;14.924;2024-03-07T04:13:30;63.38;;;40.10;;
63499;SDS011;49654;51.142;14.924;2024-03-07T04:15:57;60.93;;;40.10;;
63499;SDS011;49654;51.142;14.924;2024-03-07T04:18:24;67.30;;;41.20;;
63499;SDS011;49654;51.142;14.924;2024-03-07T04:20:52;62.27;;;38.60;;
63499;SDS011;49654;51.142;14.924;2024-03-07T04:23:21;59.40;;;37.53;;
63499;SDS011;49654;51.142;14.924;2024-03-07T04:25:48;55.13;;;35.33;;
63499;SDS011;49654;51.142;14.924;2024-03-07T04:28:15;53.58;;;34.63;;
63499;SDS011;49654;51.142;14.924;2024-03-07T04:30:42;53.65;;;33.97;;
63499;SDS011;49654;51.142;14.924;2024-03-07T04:33:09;50.85;;;31.63;;
63499;SDS011;49654;51.142;14.924;2024-03-07T04:35:36;50.35;;;32.75;;
63499;SDS011;49654;51.142;14.924;2024-03-07T04:38:03;43.92;;;29.00;;
63499;SDS011;49654;51.142;14.924;2024-03-07T04:40:36;44.53;;;29.30;;
63499;SDS011;49654;51.142;14.924;2024-03-07T04:43:04;46.33;;;28.50;;
63499;SDS011;49654;51.142;14.924;2024-03-07T04:45:31;44.83;;;29.00;;
63499;SDS011;49654;51.142;14.924;2024-03-07T04:47:58;44.47;;;28.60;;
63499;SDS011;49654;51.142;14.924;2024-03-07T04:50:25;44.73;;;29.57;;
63499;SDS011;49654;51.142;14.924;2024-03-07T04:52:52;44.33;;;29.17;;
63499;SDS011;49654;51.142;14.924;2024-03-07T04:55:19;45.83;;;28.07;;
63499;SDS011;49654;51.142;14.924;2024-03-07T04:57:48;43.47;;;28.67;;
63499;SDS011;49654;51.142;14.924;2024-03-07T05:00:15;46.13;;;29.00;;
63499;SDS011;49654;51.142;14.924;2024-03-07T05:02:45;43.27;;;27.90;;
63499;SDS011;49654;51.142;14.924;2024-03-07T05:05:13;44.77;;;27.53;;
63499;SDS011;49654;51.142;14.924;2024-03-07T05:07:40;42.37;;;26.80;;
63499;SDS011;49654;51.142;14.924;2024-03-07T05:10:07;45.67;;;30.67;;
63499;SDS011;49654;51.142;14.924;2024-03-07T05:12:34;42.50;;;27.37;;
63499;SDS011;49654;51.142;14.924;2024-03-07T05:15:04;45.30;;;28.03;;
63499;SDS011;49654;51.142;14.924;2024-03-07T05:17:32;42.00;;;28.07;;
63499;SDS011;49654;51.142;14.924;2024-03-07T05:20:00;40.30;;;27.33;;
63499;SDS011;49654;51.142;14.924;2024-03-07T05:22:28;40.40;;;28.27;;
63499;SDS011;49654;51.142;14.924;2024-03-07T05:24:56;41.50;;;27.60;;
63499;SDS011;49654;51.142;14.924;2024-03-07T05:27:24;39.07;;;25.07;;
63499;SDS011;49654;51.142;14.924;2024-03-07T05:29:53;37.60;;;25.63;;
63499;SDS011;49654;51.142;14.924;2024-03-07T05:32:23;37.77;;;24.17;;
63499;SDS011;49654;51.142;14.924;2024-03-07T05:34:51;37.50;;;25.00;;
63499;SDS011;49654;51.142;14.924;2024-03-07T05:37:18;38.70;;;24.30;;
63499;SDS011;49654;51.142;14.924;2024-03-07T05:39:47;35.97;;;24.60;;
63499;SDS011;49654;51.142;14.924;2024-03-07T05:42:14;40.17;;;25.63;;
63499;SDS011;49654;51.142;14.924;2024-03-07T05:44:41;37.87;;;24.67;;
63499;SDS011;49654;51.142;14.924;2024-03-07T05:47:08;38.07;;;24.80;;
63499;SDS011;49654;51.142;14.924;2024-03-07T05:49:36;39.13;;;25.83;;
63499;SDS011;49654;51.142;14.924;2024-03-07T05:52:04;37.43;;;23.53;;
63499;SDS011;49654;51.142;14.924;2024-03-07T05:54:32;41.63;;;24.33;;
63499;SDS011;49654;51.142;14.924;2024-03-07T05:56:59;39.40;;;26.83;;
63499;SDS011;49654;51.142;14.924;2024-03-07T05:59:26;43.03;;;27.80;;
63499;SDS011;49654;51.142;14.924;2024-03-07T06:01:56;37.80;;;25.63;;
63499;SDS011;49654;51.142;14.924;2024-03-07T06:04:23;39.07;;;26.17;;
63499;SDS011;49654;51.142;14.924;2024-03-07T06:06:51;40.53;;;26.70;;
63499;SDS011;49654;51.142;14.924;2024-03-07T06:09:18;41.07;;;26.53;;
63499;SDS011;49654;51.142;14.924;2024-03-07T06:11:47;39.53;;;25.53;;
63499;SDS011;49654;51.142;14.924;2024-03-07T06:14:15;40.40;;;25.83;;
63499;SDS011;49654;51.142;14.924;2024-03-07T06:16:43;38.87;;;26.77;;
63499;SDS011;49654;51.142;14.924;2024-03-07T06:19:10;35.63;;;24.27;;
63499;SDS011;49654;51.142;14.924;2024-03-07T06:21:37;37.17;;;23.80;;
63499;SDS011;49654;51.142;14.924;2024-03-07T06:24:07;39.80;;;23.97;;
63499;SDS011;49654;51.142;14.924;2024-03-07T06:26:37;39.77;;;23.07;;
63499;SDS011;49654;51.142;14.924;2024-03-07T06:29:13;39.53;;;23.40;;
63499;SDS011;49654;51.142;14.924;2024-03-07T06:31:41;35.97;;;23.80;;
63499;SDS011;49654;51.142;14.924;2024-03-07T06:34:09;36.27;;;22.67;;
63499;SDS011;49654;51.142;14.924;2024-03-07T06:36:36;36.23;;;23.03;;
63499;SDS011;49654;51.142;14.924;2024-03-07T06:39:03;38.60;;;23.87;;
63499;SDS011;49654;51.142;14.924;2024-03-07T06:41:33;35.27;;;23.20;;
63499;SDS011;49654;51.142;14.924;2024-03-07T06:44:00;35.70;;;23.33;;
63499;SDS011;49654;51.142;14.924;2024-03-07T06:46:27;38.63;;;24.30;;
63499;SDS011;49654;51.142;14.924;2024-03-07T06:48:56;38.17;;;23.53;;
63499;SDS011;49654;51.142;14.924;2024-03-07T06:51:24;34.30;;;23.33;;
63499;SDS011;49654;51.142;14.924;2024-03-07T06:53:51;37.10;;;22.43;;
63499;SDS011;49654;51.142;14.924;2024-03-07T06:56:18;35.77;;;23.17;;
63499;SDS011;49654;51.142;14.924;2024-03-07T06:58:46;36.30;;;22.77;;
63499;SDS011;49654;51.142;14.924;2024-03-07T07:01:13;33.03;;;23.00;;
63499;SDS011;49654;51.142;14.924;2024-03-07T07:03:42;32.83;;;21.40;;
63499;SDS011;49654;51.142;14.924;2024-03-07T07:06:10;37.40;;;23.13;;
63499;SDS011;49654;51.142;14.924;2024-03-07T07:08:37;33.87;;;22.20;;
63499;SDS011;49654;51.142;14.924;2024-03-07T07:11:04;35.50;;;22.67;;
63499;SDS011;49654;51.142;14.924;2024-03-07T07:13:31;33.10;;;21.80;;
63499;SDS011;49654;51.142;14.924;2024-03-07T07:16:00;33.03;;;22.47;;
63499;SDS011;49654;51.142;14.924;2024-03-07T07:18:27;37.10;;;23.47;;
63499;SDS011;49654;51.142;14.924;2024-03-07T07:20:54;37.07;;;23.77;;
63499;SDS011;49654;51.142;14.924;2024-03-07T07:23:21;39.33;;;24.47;;
63499;SDS011;49654;51.142;14.924;2024-03-07T07:25:48;39.13;;;24.87;;
63499;SDS011;49654;51.142;14.924;2024-03-07T07:28:15;37.33;;;24.50;;
63499;SDS011;49654;51.142;14.924;2024-03-07T07:30:42;35.17;;;23.40;;
63499;SDS011;49654;51.142;14.924;2024-03-07T07:33:11;36.27;;;25.23;;
63499;SDS011;49654;51.142;14.924;2024-03-07T07:35:37;37.70;;;25.13;;
63499;SDS011;49654;51.142;14.924;2024-03-07T07:38:04;36.37;;;24.13;;
63499;SDS011;49654;51.142;14.924;2024-03-07T07:40:32;38.53;;;25.00;;
63499;SDS011;49654;51.142;14.924;2024-03-07T07:42:59;37.63;;;24.63;;
63499;SDS011;49654;51.142;14.924;2024-03-07T07:45:29;36.15;;;24.15;;
63499;SDS011;49654;51.142;14.924;2024-03-07T07:47:58;43.10;;;26.33;;
63499;SDS011;49654;51.142;14.924;2024-03-07T07:50:26;38.65;;;24.35;;
63499;SDS011;49654;51.142;14.924;2024-03-07T07:52:54;38.65;;;24.65;;
63499;SDS011;49654;51.142;14.924;2024-03-07T07:55:23;46.95;;;27.40;;
63499;SDS011;49654;51.142;14.924;2024-03-07T07:57:52;38.67;;;25.97;;
63499;SDS011;49654;51.142;14.924;2024-03-07T08:00:20;40.40;;;26.33;;
63499;SDS011;49654;51.142;14.924;2024-03-07T08:02:50;40.00;;;25.67;;
63499;SDS011;49654;51.142;14.924;2024-03-07T08:05:17;41.83;;;25.85;;
63499;SDS011;49654;51.142;14.924;2024-03-07T08:07:46;41.70;;;27.55;;
63499;SDS011;49654;51.142;14.924;2024-03-07T08:10:13;43.20;;;28.30;;
63499;SDS011;49654;51.142;14.924;2024-03-07T08:12:41;42.23;;;28.07;;
63499;SDS011;49654;51.142;14.924;2024-03-07T08:15:09;41.20;;;26.95;;
63499;SDS011;49654;51.142;14.924;2024-03-07T08:17:40;43.65;;;27.38;;
63499;SDS011;49654;51.142;14.924;2024-03-07T08:20:10;49.08;;;27.48;;
63499;SDS011;49654;51.142;14.924;2024-03-07T08:22:38;40.58;;;26.92;;
63499;SDS011;49654;51.142;14.924;2024-03-07T08:25:07;41.78;;;26.00;;
63499;SDS011;49654;51.142;14.924;2024-03-07T08:27:36;40.00;;;25.55;;
63499;SDS011;49654;51.142;14.924;2024-03-07T08:30:04;42.03;;;27.25;;
63499;SDS011;49654;51.142;14.924;2024-03-07T08:32:33;43.08;;;27.20;;
63499;SDS011;49654;51.142;14.924;2024-03-07T08:35:03;41.80;;;27.40;;
63499;SDS011;49654;51.142;14.924;2024-03-07T08:37:33;41.60;;;27.25;;
63499;SDS011;49654;51.142;14.924;2024-03-07T08:40:01;40.42;;;28.83;;
63499;SDS011;49654;51.142;14.924;2024-03-07T08:42:33;42.42;;;28.60;;
63499;SDS011;49654;51.142;14.924;2024-03-07T08:45:01;41.42;;;27.88;;
63499;SDS011;49654;51.142;14.924;2024-03-07T08:47:30;41.13;;;28.33;;
63499;SDS011;49654;51.142;14.924;2024-03-07T08:49:57;47.40;;;28.33;;
63499;SDS011;49654;51.142;14.924;2024-03-07T08:52:24;41.78;;;27.70;;
63499;SDS011;49654;51.142;14.924;2024-03-07T08:54:51;42.95;;;28.20;;
63499;SDS011;49654;51.142;14.924;2024-03-07T08:57:19;44.20;;;28.30;;
63499;SDS011;49654;51.142;14.924;2024-03-07T08:59:49;42.45;;;28.85;;
63499;SDS011;49654;51.142;14.924;2024-03-07T09:02:16;39.20;;;26.85;;
63499;SDS011;49654;51.142;14.924;2024-03-07T09:04:43;42.95;;;27.85;;
63499;SDS011;49654;51.142;14.924;2024-03-07T09:07:10;35.33;;;25.83;;
63499;SDS011;49654;51.142;14.924;2024-03-07T09:09:37;40.50;;;26.58;;
63499;SDS011;49654;51.142;14.924;2024-03-07T09:12:04;38.00;;;25.45;;
63499;SDS011;49654;51.142;14.924;2024-03-07T09:14:32;37.08;;;25.10;;
63499;SDS011;49654;51.142;14.924;2024-03-07T09:17:00;39.53;;;25.23;;
63499;SDS011;49654;51.142;14.924;2024-03-07T09:19:27;34.28;;;23.08;;
63499;SDS011;49654;51.142;14.924;2024-03-07T09:21:54;31.17;;;23.38;;
63499;SDS011;49654;51.142;14.924;2024-03-07T09:24:22;37.58;;;24.48;;
63499;SDS011;49654;51.142;14.924;2024-03-07T09:26:49;35.83;;;23.98;;
63499;SDS011;49654;51.142;14.924;2024-03-07T09:29:17;38.38;;;23.85;;
63499;SDS011;49654;51.142;14.924;2024-03-07T09:31:46;37.53;;;24.80;;
63499;SDS011;49654;51.142;14.924;2024-03-07T09:34:18;36.78;;;25.08;;
63499;SDS011;49654;51.142;14.924;2024-03-07T09:36:46;37.40;;;25.70;;
63499;SDS011;49654;51.142;14.924;2024-03-07T09:39:13;40.13;;;25.67;;
63499;SDS011;49654;51.142;14.924;2024-03-07T09:41:40;37.17;;;23.75;;
63499;SDS011;49654;51.142;14.924;2024-03-07T09:44:07;36.85;;;24.92;;
63499;SDS011;49654;51.142;14.924;2024-03-07T09:46:37;39.28;;;25.85;;
63499;SDS011;49654;51.142;14.924;2024-03-07T09:49:05;32.80;;;22.65;;
63499;SDS011;49654;51.142;14.924;2024-03-07T09:51:35;33.13;;;23.25;;
63499;SDS011;49654;51.142;14.924;2024-03-07T09:54:02;31.98;;;23.35;;
63499;SDS011;49654;51.142;14.924;2024-03-07T09:56:30;30.80;;;21.48;;
63499;SDS011;49654;51.142;14.924;2024-03-07T09:58:58;26.90;;;19.65;;
63499;SDS011;49654;51.142;14.924;2024-03-07T10:01:27;26.00;;;18.48;;
63499;SDS011;49654;51.142;14.924;2024-03-07T10:03:57;23.95;;;18.00;;
63499;SDS011;49654;51.142;14.924;2024-03-07T10:06:27;25.38;;;16.27;;
63499;SDS011;49654;51.142;14.924;2024-03-07T10:08:56;24.55;;;16.55;;
63499;SDS011;49654;51.142;14.924;2024-03-07T10:11:24;23.75;;;15.65;;
63499;SDS011;49654;51.142;14.924;2024-03-07T10:13:52;22.67;;;15.73;;
63499;SDS011;49654;51.142;14.924;2024-03-07T10:16:19;21.17;;;14.80;;
63499;SDS011;49654;51.142;14.924;2024-03-07T10:18:46;21.35;;;14.32;;
63499;SDS011;49654;51.142;14.924;2024-03-07T10:21:18;18.77;;;13.57;;
63499;SDS011;49654;51.142;14.924;2024-03-07T10:23:45;18.13;;;13.27;;
63499;SDS011;49654;51.142;14.924;2024-03-07T10:26:14;19.20;;;13.02;;
63499;SDS011;49654;51.142;14.924;2024-03-07T10:28:42;18.98;;;13.00;;
63499;SDS011;49654;51.142;14.924;2024-03-07T10:31:09;16.98;;;12.57;;
63499;SDS011;49654;51.142;14.924;2024-03-07T10:33:37;15.55;;;11.40;;
63499;SDS011;49654;51.142;14.924;2024-03-07T10:36:04;18.98;;;12.98;;
63499;SDS011;49654;51.142;14.924;2024-03-07T10:38:36;22.63;;;12.57;;
63499;SDS011;49654;51.142;14.924;2024-03-07T10:41:04;16.65;;;12.27;;
63499;SDS011;49654;51.142;14.924;2024-03-07T10:43:35;16.95;;;12.35;;
63499;SDS011;49654;51.142;14.924;2024-03-07T10:46:07;18.25;;;12.30;;
63499;SDS011;49654;51.142;14.924;2024-03-07T10:48:38;19.52;;;13.23;;
63499;SDS011;49654;51.142;14.924;2024-03-07T10:51:06;19.10;;;13.68;;
63499;SDS011;49654;51.142;14.924;2024-03-07T10:53:43;20.02;;;13.07;;
63499;SDS011;49654;51.142;14.924;2024-03-07T10:56:18;18.25;;;12.75;;
63499;SDS011;49654;51.142;14.924;2024-03-07T10:58:57;16.98;;;12.45;;
63499;SDS011;49654;51.142;14.924;2024-03-07T11:01:29;19.80;;;12.57;;
63499;SDS011;49654;51.142;14.924;2024-03-07T11:03:59;16.88;;;12.27;;
63499;SDS011;49654;51.142;14.924;2024-03-07T11:06:29;17.80;;;12.93;;
63499;SDS011;49654;51.142;14.924;2024-03-07T11:08:59;17.10;;;12.95;;
63499;SDS011;49654;51.142;14.924;2024-03-07T11:11:28;18.75;;;13.02;;
63499;SDS011;49654;51.142;14.924;2024-03-07T11:13:57;18.95;;;13.20;;
63499;SDS011;49654;51.142;14.924;2024-03-07T11:16:25;19.75;;;14.60;;
63499;SDS011;49654;51.142;14.924;2024-03-07T11:21:46;18.88;;;13.75;;
63499;SDS011;49654;51.142;14.924;2024-03-07T11:24:22;24.77;;;14.63;;
63499;SDS011;49654;51.142;14.924;2024-03-07T11:26:50;18.55;;;13.73;;
63499;SDS011;49654;51.142;14.924;2024-03-07T11:32:08;20.15;;;13.80;;
63499;SDS011;49654;51.142;14.924;2024-03-07T11:34:37;24.45;;;15.23;;
63499;SDS011;49654;51.142;14.924;2024-03-07T11:37:07;21.48;;;15.40;;
63499;SDS011;49654;51.142;14.924;2024-03-07T11:39:43;22.88;;;15.55;;
63499;SDS011;49654;51.142;14.924;2024-03-07T11:42:24;20.48;;;14.95;;
63499;SDS011;49654;51.142;14.924;2024-03-07T11:44:53;25.45;;;14.77;;
63499;SDS011;49654;51.142;14.924;2024-03-07T11:47:22;22.25;;;15.93;;
63499;SDS011;49654;51.142;14.924;2024-03-07T11:49:50;24.20;;;17.15;;
63499;SDS011;49654;51.142;14.924;2024-03-07T11:52:17;23.35;;;15.75;;
63499;SDS011;49654;51.142;14.924;2024-03-07T11:54:46;19.00;;;14.95;;
63499;SDS011;49654;51.142;14.924;2024-03-07T11:57:14;21.90;;;15.05;;
63499;SDS011;49654;51.142;14.924;2024-03-07T11:59:42;23.73;;;15.50;;
63499;SDS011;49654;51.142;14.924;2024-03-07T12:02:13;19.50;;;15.07;;
63499;SDS011;49654;51.142;14.924;2024-03-07T12:04:41;23.40;;;15.70;;
63499;SDS011;49654;51.142;14.924;2024-03-07T12:07:08;22.30;;;16.17;;
63499;SDS011;49654;51.142;14.924;2024-03-07T12:09:36;20.40;;;15.10;;
63499;SDS011;49654;51.142;14.924;2024-03-07T12:12:04;20.20;;;15.90;;
63499;SDS011;49654;51.142;14.924;2024-03-07T12:14:32;24.73;;;17.05;;
63499;SDS011;49654;51.142;14.924;2024-03-07T12:17:00;25.27;;;16.08;;
63499;SDS011;49654;51.142;14.924;2024-03-07T12:19:31;23.95;;;16.42;;
63499;SDS011;49654;51.142;14.924;2024-03-07T12:22:02;25.00;;;17.55;;
63499;SDS011;49654;51.142;14.924;2024-03-07T12:24:29;23.05;;;16.95;;
63499;SDS011;49654;51.142;14.924;2024-03-07T12:27:06;24.45;;;16.52;;
63499;SDS011;49654;51.142;14.924;2024-03-07T12:29:35;23.63;;;17.13;;
63499;SDS011;49654;51.142;14.924;2024-03-07T12:32:03;22.60;;;16.60;;
63499;SDS011;49654;51.142;14.924;2024-03-07T12:34:33;25.92;;;17.25;;
63499;SDS011;49654;51.142;14.924;2024-03-07T12:37:03;21.10;;;16.38;;
63499;SDS011;49654;51.142;14.924;2024-03-07T12:39:31;25.92;;;17.60;;
63499;SDS011;49654;51.142;14.924;2024-03-07T12:42:01;22.98;;;17.77;;
63499;SDS011;49654;51.142;14.924;2024-03-07T12:44:38;25.83;;;18.08;;
63499;SDS011;49654;51.142;14.924;2024-03-07T12:47:08;22.83;;;16.98;;
63499;SDS011;49654;51.142;14.924;2024-03-07T12:49:37;23.60;;;16.92;;
63499;SDS011;49654;51.142;14.924;2024-03-07T12:52:05;25.45;;;17.65;;
63499;SDS011;49654;51.142;14.924;2024-03-07T12:54:33;25.08;;;17.35;;
63499;SDS011;49654;51.142;14.924;2024-03-07T12:57:00;25.35;;;17.13;;
63499;SDS011;49654;51.142;14.924;2024-03-07T12:59:31;24.20;;;17.92;;
63499;SDS011;49654;51.142;14.924;2024-03-07T13:01:58;25.98;;;18.90;;
63499;SDS011;49654;51.142;14.924;2024-03-07T13:04:25;26.30;;;17.25;;
63499;SDS011;49654;51.142;14.924;2024-03-07T13:06:54;25.65;;;18.55;;
63499;SDS011;49654;51.142;14.924;2024-03-07T13:09:25;27.90;;;19.15;;
63499;SDS011;49654;51.142;14.924;2024-03-07T13:11:53;24.83;;;18.48;;
63499;SDS011;49654;51.142;14.924;2024-03-07T13:14:20;24.98;;;17.98;;
63499;SDS011;49654;51.142;14.924;2024-03-07T13:16:47;28.45;;;18.38;;
63499;SDS011;49654;51.142;14.924;2024-03-07T13:19:15;24.52;;;18.38;;
63499;SDS011;49654;51.142;14.924;2024-03-07T13:21:46;25.80;;;18.95;;
63499;SDS011;49654;51.142;14.924;2024-03-07T13:24:16;27.48;;;19.48;;
63499;SDS011;49654;51.142;14.924;2024-03-07T13:26:43;28.52;;;19.65;;
63499;SDS011;49654;51.142;14.924;2024-03-07T13:29:10;33.60;;;19.83;;
63499;SDS011;49654;51.142;14.924;2024-03-07T13:31:38;25.95;;;18.35;;
63499;SDS011;49654;51.142;14.924;2024-03-07T13:34:05;27.25;;;18.92;;
63499;SDS011;49654;51.142;14.924;2024-03-07T13:36:38;25.67;;;18.50;;
63499;SDS011;49654;51.142;14.924;2024-03-07T13:39:06;27.13;;;20.30;;
63499;SDS011;49654;51.142;14.924;2024-03-07T13:41:38;28.42;;;19.38;;
63499;SDS011;49654;51.142;14.924;2024-03-07T13:44:05;31.35;;;20.40;;
63499;SDS011;49654;51.142;14.924;2024-03-07T13:46:32;31.30;;;20.65;;
63499;SDS011;49654;51.142;14.924;2024-03-07T13:48:59;30.60;;;20.55;;
63499;SDS011;49654;51.142;14.924;2024-03-07T13:51:33;30.70;;;19.70;;
63499;SDS011;49654;51.142;14.924;2024-03-07T13:54:02;28.83;;;20.45;;
63499;SDS011;49654;51.142;14.924;2024-03-07T13:56:54;31.13;;;20.13;;
63499;SDS011;49654;51.142;14.924;2024-03-07T13:59:36;30.95;;;20.52;;
63499;SDS011;49654;51.142;14.924;2024-03-07T14:02:25;31.13;;;21.02;;
63499;SDS011;49654;51.142;14.924;2024-03-07T14:11:36;32.70;;;21.48;;
63499;SDS011;49654;51.142;14.924;2024-03-07T14:14:30;30.80;;;20.88;;
63499;SDS011;49654;51.142;14.924;2024-03-07T14:17:24;30.90;;;21.77;;
63499;SDS011;49654;51.142;14.924;2024-03-07T14:20:28;28.15;;;20.48;;
63499;SDS011;49654;51.142;14.924;2024-03-07T14:23:14;30.70;;;21.58;;
63499;SDS011;49654;51.142;14.924;2024-03-07T14:26:02;31.17;;;21.15;;
63499;SDS011;49654;51.142;14.924;2024-03-07T14:29:03;28.70;;;20.58;;
63499;SDS011;49654;51.142;14.924;2024-03-07T14:31:42;32.22;;;20.67;;